Main page
METAR-TAF:

METAR-TAF

Airports :

Clermont-Ferrand, France

Clermont-Ferrand Auvergne Airport

latitude: 45-47N, longitude: 003-10E, elevation: 332 m

Current weather observation

The report was made 32 minutes ago, at 01:30 UTC
Wind 7 kt from the Southeast
Temperature 18°C
Humidity 49%
Pressure 1016 hPa
Visibility 10 km or more
no clouds below 1500 m and no cumulonimbus

METAR: LFLC 290130Z AUTO 14007KT CAVOK 18/07 Q1016 NOSIG

Time: 04:02 (02:02 UTC)

Forecast

The report was made 6 hours and 2 minutes ago, at 20:00 UTC
Forecast valid from 28 at 21 UTC to 29 at 21 UTC
Wind 10 kt from the South
Visibility 10 km or more
no clouds below 1500 m and no cumulonimbus
Becoming
from 29 at 08 UTC to 29 at 10 UTC
Wind 5 kt from the East/Northeast

TAF: LFLC 282000Z 2821/2921 18010KT CAVOK BECMG 2908/2910 06005KT

Weather observations and forecasts of more than 4000 airports (METAR and TAF reports).

The available stations are represented by yellow and red dots on the map.

Hover mouse over dot to see the name of the station.

Then click to see weather observations and forecasts.

To change the map : click on the green buttons with a black cross to zoom in, on the green button with a dash to zoom out, or on the green arrows for adjacent maps.


METAR-TAF: